createdAt,value
2023-01-27T00:01:04.566Z,99481.72
2023-01-27T00:03:32.418Z,99486.88
2023-01-27T00:06:01.306Z,99473.03
2023-01-27T00:08:30.638Z,99486.91
2023-01-27T00:11:19.276Z,99479.97
2023-01-27T00:13:47.058Z,99479.09
2023-01-27T00:16:14.857Z,99476.50
2023-01-27T00:18:42.821Z,99484.28
2023-01-27T00:21:28.189Z,99478.22
2023-01-27T00:24:14.906Z,99470.47
2023-01-27T00:26:42.748Z,99467.84
2023-01-27T00:29:10.443Z,99471.28
2023-01-27T00:31:55.772Z,99474.75
2023-01-27T00:34:26.843Z,99467.84
2023-01-27T00:36:55.674Z,99462.63
2023-01-27T00:39:24.741Z,99474.75
2023-01-27T00:41:52.367Z,99464.34
2023-01-27T00:44:20.550Z,99457.41
2023-01-27T00:46:51.091Z,99476.47
2023-01-27T00:49:19.115Z,99472.13
2023-01-27T00:51:47.469Z,99470.41
2023-01-27T00:54:15.508Z,99475.63
2023-01-27T00:56:45.057Z,99474.75
2023-01-27T00:59:12.762Z,99466.97
2023-01-27T01:01:40.984Z,99469.53
2023-01-27T01:04:08.709Z,99474.72
2023-01-27T01:06:36.555Z,99470.44
2023-01-27T01:09:05.259Z,99473.00
2023-01-27T01:11:33.182Z,99462.66
2023-01-27T01:14:02.311Z,99472.16
2023-01-27T01:19:20.131Z,99476.47
2023-01-27T01:21:47.841Z,99492.03
2023-01-27T01:24:16.133Z,99485.09
2023-01-27T01:26:43.951Z,99484.25
2023-01-27T01:29:13.032Z,99487.72
2023-01-27T01:31:40.774Z,99489.44
2023-01-27T01:34:08.606Z,99486.81
2023-01-27T01:36:36.372Z,99492.03
2023-01-27T01:39:04.349Z,99494.66
2023-01-27T01:41:32.035Z,99487.72
2023-01-27T01:43:59.823Z,99487.72
2023-01-27T01:46:28.862Z,99482.56
2023-01-27T01:48:59.629Z,99480.81
2023-01-27T01:51:30.793Z,99484.28
2023-01-27T01:54:01.997Z,99481.66
2023-01-27T01:56:33.641Z,99487.75
2023-01-27T01:59:05.328Z,99485.16
2023-01-27T02:01:34.335Z,99476.50
2023-01-27T02:04:05.373Z,99483.41
2023-01-27T02:06:38.804Z,99477.34
2023-01-27T02:09:07.141Z,99481.66
2023-01-27T02:11:35.003Z,99483.41
2023-01-27T02:14:02.886Z,99473.88
2023-01-27T02:16:31.430Z,99484.25
2023-01-27T02:19:00.484Z,99453.13
2023-01-27T02:21:28.114Z,99478.22
2023-01-27T02:23:58.407Z,99472.19
2023-01-27T02:26:30.073Z,99463.56
2023-01-27T02:28:59.700Z,99467.88
2023-01-27T02:31:27.629Z,99467.00
2023-01-27T02:33:59.061Z,99472.19
2023-01-27T02:36:28.113Z,99467.84
2023-01-27T02:38:57.388Z,99470.47
2023-01-27T02:41:26.880Z,99466.13
2023-01-27T02:43:56.751Z,99474.78
2023-01-27T02:46:24.513Z,99472.19
2023-01-27T02:48:52.446Z,99483.44
2023-01-27T02:51:20.098Z,99479.97
2023-01-27T02:53:47.762Z,99479.97
2023-01-27T02:56:15.609Z,99479.13
2023-01-27T02:58:43.230Z,99481.69
2023-01-27T03:01:12.422Z,99478.22
2023-01-27T03:03:44.000Z,99481.69
2023-01-27T03:06:12.096Z,99486.03
2023-01-27T03:08:40.191Z,99475.63
2023-01-27T03:11:08.339Z,99477.38
2023-01-27T03:13:42.265Z,99484.28
2023-01-27T03:16:30.433Z,99475.63
2023-01-27T03:18:58.120Z,99484.31
2023-01-27T03:21:26.427Z,99481.69
2023-01-27T03:23:54.216Z,99477.34
2023-01-27T03:26:21.933Z,99486.03
2023-01-27T03:29:09.620Z,99472.19
2023-01-27T03:31:38.945Z,99493.81
2023-01-27T03:34:09.611Z,99494.69
2023-01-27T03:36:55.189Z,99485.16
2023-01-27T03:39:40.484Z,99498.97
2023-01-27T03:42:25.795Z,99505.03
2023-01-27T03:45:11.376Z,99505.03
2023-01-27T03:47:40.954Z,99504.13
2023-01-27T03:50:13.859Z,99498.09
2023-01-27T03:52:42.078Z,99501.59
2023-01-27T03:55:11.425Z,99502.44
2023-01-27T03:57:39.806Z,99493.81
2023-01-27T04:00:09.936Z,99499.00
2023-01-27T04:02:55.145Z,99495.53
2023-01-27T04:05:41.824Z,99492.06
2023-01-27T04:08:09.514Z,99496.41
2023-01-27T04:10:37.163Z,99492.06
2023-01-27T04:13:03.877Z,99466.09
2023-01-27T04:15:34.545Z,99500.72
2023-01-27T04:18:02.265Z,99505.88
2023-01-27T04:20:31.359Z,99505.91
2023-01-27T04:22:59.005Z,99497.25
2023-01-27T04:25:26.618Z,99506.75
2023-01-27T04:27:54.276Z,99505.03
2023-01-27T04:30:22.307Z,99505.91
2023-01-27T04:32:50.058Z,99492.91
2023-01-27T04:35:18.183Z,99499.84
2023-01-27T04:37:47.986Z,99501.56
2023-01-27T04:40:15.828Z,99503.28
2023-01-27T04:42:43.519Z,99512.81
2023-01-27T04:45:11.927Z,99511.09
2023-01-27T04:47:39.836Z,99505.88
2023-01-27T04:50:07.949Z,99492.06
2023-01-27T04:52:35.658Z,99511.09
2023-01-27T04:55:04.768Z,99514.56
2023-01-27T04:57:32.436Z,99518.00
2023-01-27T05:00:00.123Z,99524.03
2023-01-27T05:02:27.984Z,99520.59
2023-01-27T05:04:55.627Z,99518.91
2023-01-27T05:07:23.268Z,99526.66
2023-01-27T05:09:53.671Z,99527.53
2023-01-27T05:12:22.637Z,99539.63
2023-01-27T05:14:52.518Z,99532.72
2023-01-27T05:17:20.177Z,99531.84
2023-01-27T05:19:47.927Z,99528.41
2023-01-27T05:22:15.640Z,99545.69
2023-01-27T05:24:43.401Z,99543.91
2023-01-27T05:27:11.285Z,99540.47
2023-01-27T05:29:40.265Z,99537.88
2023-01-27T05:32:08.047Z,99546.53
2023-01-27T05:34:35.796Z,99547.41
2023-01-27T05:37:03.391Z,99542.25
2023-01-27T05:39:30.993Z,99542.22
2023-01-27T05:41:58.712Z,99559.50
2023-01-27T05:44:26.528Z,99553.44
2023-01-27T05:46:55.972Z,99552.56
2023-01-27T05:49:23.652Z,99552.56
2023-01-27T05:51:51.440Z,99546.53
2023-01-27T05:54:19.098Z,99558.66
2023-01-27T05:56:46.820Z,99555.13
2023-01-27T05:59:14.722Z,99553.47
2023-01-27T06:01:42.522Z,99558.66
2023-01-27T06:04:11.992Z,99556.94
2023-01-27T06:06:39.721Z,99564.69
2023-01-27T06:09:07.497Z,99561.25
2023-01-27T06:11:35.165Z,99559.56
2023-01-27T06:14:02.859Z,99559.53
2023-01-27T06:16:30.551Z,99564.69
2023-01-27T06:18:58.654Z,99552.63
2023-01-27T06:21:27.609Z,99529.22
2023-01-27T06:23:55.933Z,99562.13
2023-01-27T06:26:23.694Z,99566.47
2023-01-27T06:28:51.321Z,99575.13
2023-01-27T06:31:21.789Z,99569.94
2023-01-27T06:33:50.285Z,99579.44
2023-01-27T06:36:20.477Z,99562.97
2023-01-27T06:38:50.180Z,99587.22
2023-01-27T06:41:17.889Z,99584.66
2023-01-27T06:43:45.538Z,99533.56
2023-01-27T06:46:13.275Z,99587.25
2023-01-27T06:48:41.095Z,99597.59
2023-01-27T06:51:08.928Z,99595.00
2023-01-27T06:53:37.422Z,99588.97
2023-01-27T06:56:07.612Z,99595.03
2023-01-27T06:58:35.217Z,99595.00
2023-01-27T07:01:05.124Z,99595.03
2023-01-27T07:03:32.711Z,99592.44
2023-01-27T07:06:00.442Z,99592.44
2023-01-27T07:08:28.158Z,99596.75
2023-01-27T07:10:55.764Z,99598.50
2023-01-27T07:13:24.789Z,99603.69
2023-01-27T07:15:55.969Z,99601.09
2023-01-27T07:18:24.196Z,99608.88
2023-01-27T07:20:51.808Z,99608.03
2023-01-27T07:23:21.580Z,99609.75
2023-01-27T07:25:49.347Z,99614.94
2023-01-27T07:28:17.005Z,99610.63
2023-01-27T07:30:46.139Z,99611.50
2023-01-27T07:33:15.301Z,99609.75
2023-01-27T07:35:43.032Z,99618.41
2023-01-27T07:38:11.055Z,99603.69
2023-01-27T07:40:38.698Z,99622.72
2023-01-27T07:43:06.365Z,99615.78
2023-01-27T07:45:34.088Z,99620.16
2023-01-27T07:48:03.863Z,99615.81
2023-01-27T07:50:31.588Z,99623.59
2023-01-27T07:53:00.771Z,99623.56
2023-01-27T07:55:29.796Z,99627.06
2023-01-27T07:57:57.831Z,99627.03
2023-01-27T08:00:26.138Z,99629.66
2023-01-27T08:02:54.342Z,99627.91
2023-01-27T08:05:23.576Z,99622.72
2023-01-27T08:07:51.279Z,99646.13
2023-01-27T08:10:19.627Z,99632.25
2023-01-27T08:12:47.980Z,99640.06
2023-01-27T08:15:18.684Z,99604.50
2023-01-27T08:17:54.335Z,99640.09
2023-01-27T08:20:23.599Z,99648.72
2023-01-27T08:22:51.350Z,99655.63
2023-01-27T08:25:21.762Z,99652.16
2023-01-27T08:27:51.679Z,99624.44
2023-01-27T08:30:20.196Z,99645.25
2023-01-27T08:32:48.005Z,99634.84
2023-01-27T08:35:16.211Z,99644.41
2023-01-27T08:37:47.993Z,99636.59
2023-01-27T08:40:16.439Z,99649.59
2023-01-27T08:42:44.187Z,99648.72
2023-01-27T08:45:12.065Z,99652.19
2023-01-27T08:47:39.752Z,99665.19
2023-01-27T08:50:08.235Z,99669.53
2023-01-27T08:52:36.002Z,99643.56
2023-01-27T08:55:05.662Z,99668.66
2023-01-27T08:57:35.257Z,99672.16
2023-01-27T09:00:06.274Z,99669.53
2023-01-27T09:02:33.954Z,99677.31
2023-01-27T09:05:01.585Z,99681.69
2023-01-27T09:07:29.189Z,99685.13
2023-01-27T09:10:12.796Z,99689.50
2023-01-27T09:12:43.202Z,99686.91
2023-01-27T09:15:11.587Z,99701.63
2023-01-27T09:17:39.253Z,99689.50
2023-01-27T09:20:07.676Z,99696.44
2023-01-27T09:22:36.638Z,99699.91
2023-01-27T09:25:04.546Z,99702.50
2023-01-27T09:27:39.570Z,99704.25
2023-01-27T09:30:11.140Z,99699.03
2023-01-27T09:32:39.276Z,99704.25
2023-01-27T09:35:07.674Z,99705.09
2023-01-27T09:37:39.924Z,99706.84
2023-01-27T09:40:13.333Z,99706.84
2023-01-27T09:43:00.553Z,99701.66
2023-01-27T09:45:38.679Z,99705.97
2023-01-27T09:48:35.922Z,99701.66
2023-01-27T09:51:07.276Z,99709.44
2023-01-27T09:53:56.556Z,99699.91
2023-01-27T09:56:33.471Z,99713.78
2023-01-27T09:59:15.304Z,99690.38
2023-01-27T10:01:54.224Z,99701.66
2023-01-27T10:04:45.393Z,99710.31
2023-01-27T10:07:28.070Z,99704.25
2023-01-27T10:10:04.281Z,99703.38
2023-01-27T10:12:44.595Z,99701.66
2023-01-27T10:15:24.990Z,99682.59
2023-01-27T10:18:02.270Z,99693.84
2023-01-27T10:20:35.952Z,99686.06
2023-01-27T10:23:12.132Z,99711.19
2023-01-27T10:25:49.584Z,99708.59
2023-01-27T10:28:22.498Z,99708.59
2023-01-27T10:30:53.152Z,99682.59
2023-01-27T10:33:23.490Z,99699.06
2023-01-27T10:35:53.420Z,99708.59
2023-01-27T10:38:35.955Z,99697.31
2023-01-27T10:41:13.364Z,99649.69
2023-01-27T10:43:50.110Z,99696.47
2023-01-27T10:46:24.530Z,99693.00
2023-01-27T10:48:52.915Z,99692.13
2023-01-27T10:51:35.973Z,99698.19
2023-01-27T10:54:11.121Z,99689.53
2023-01-27T10:56:44.027Z,99654.00
2023-01-27T11:04:16.641Z,99699.91
2023-01-27T11:06:47.148Z,99679.13
2023-01-27T11:09:25.769Z,99693.84
2023-01-27T11:11:54.707Z,99672.19
2023-01-27T11:14:27.391Z,99688.66
2023-01-27T11:16:57.900Z,99672.19
2023-01-27T11:19:32.687Z,99675.66
2023-01-27T11:24:33.997Z,99697.31
2023-01-27T11:27:06.393Z,99686.91
2023-01-27T11:29:39.084Z,99660.94
2023-01-27T11:32:17.106Z,99691.22
2023-01-27T11:34:47.857Z,99693.84
2023-01-27T11:37:19.453Z,99696.44
2023-01-27T11:39:49.015Z,99691.22
2023-01-27T11:42:17.313Z,99657.47
2023-01-27T11:44:45.561Z,99673.06
2023-01-27T11:47:22.988Z,99692.09
2023-01-27T11:49:52.283Z,99688.63
2023-01-27T11:52:22.290Z,99685.16
2023-01-27T11:54:55.349Z,99686.91
2023-01-27T11:57:25.065Z,99689.50
2023-01-27T11:59:56.180Z,99691.22
2023-01-27T12:02:29.205Z,99686.91
2023-01-27T12:05:03.895Z,99669.56
2023-01-27T12:07:39.760Z,99668.69
2023-01-27T12:10:23.262Z,99684.28
2023-01-27T12:12:54.066Z,99681.66
2023-01-27T12:15:21.743Z,99672.16
2023-01-27T12:17:51.853Z,99680.78
2023-01-27T12:20:40.491Z,99666.91
2023-01-27T12:23:17.608Z,99673.84
2023-01-27T12:25:52.000Z,99662.53
2023-01-27T12:28:28.968Z,99672.91
2023-01-27T12:30:59.150Z,99661.66
2023-01-27T12:33:30.912Z,99661.66
2023-01-27T12:36:01.116Z,99648.66
2023-01-27T12:38:32.142Z,99652.09
2023-01-27T12:41:03.876Z,99642.50
2023-01-27T12:43:31.720Z,99652.06
2023-01-27T12:46:06.045Z,99646.91
2023-01-27T12:48:36.263Z,99638.22
2023-01-27T12:51:10.912Z,99646.88
2023-01-27T12:53:39.857Z,99643.41
2023-01-27T12:56:13.521Z,99638.16
2023-01-27T12:58:42.678Z,99651.19
2023-01-27T13:01:23.245Z,99626.91
2023-01-27T13:03:53.658Z,99647.69
2023-01-27T13:06:28.684Z,99650.34
2023-01-27T13:08:56.454Z,99650.28
2023-01-27T13:11:34.819Z,99649.47
2023-01-27T13:14:02.662Z,99644.25
2023-01-27T13:16:31.652Z,99643.41
2023-01-27T13:19:00.804Z,99647.75
2023-01-27T13:21:32.540Z,99652.97
2023-01-27T13:24:00.533Z,99659.88
2023-01-27T13:26:31.882Z,99629.59
2023-01-27T13:29:04.362Z,99654.72
2023-01-27T13:31:42.198Z,99657.31
2023-01-27T13:34:17.177Z,99663.38
2023-01-27T13:36:48.234Z,99663.38
2023-01-27T13:39:19.827Z,99658.19
2023-01-27T13:41:53.034Z,99657.31
2023-01-27T13:44:27.151Z,99670.25
2023-01-27T13:46:55.710Z,99669.41
2023-01-27T13:49:31.809Z,99672.03
2023-01-27T13:51:59.522Z,99661.66
2023-01-27T13:54:29.991Z,99672.00
2023-01-27T13:57:07.075Z,99671.16
2023-01-27T13:59:41.397Z,99671.16
2023-01-27T14:02:30.972Z,99673.72
2023-01-27T14:05:16.584Z,99671.16
2023-01-27T14:07:48.655Z,99662.50
2023-01-27T14:10:20.138Z,99676.34
2023-01-27T14:13:03.189Z,99676.34
2023-01-27T14:15:36.049Z,99676.38
2023-01-27T14:18:11.678Z,99681.56
2023-01-27T14:20:49.960Z,99684.16
2023-01-27T14:23:26.581Z,99685.94
2023-01-27T14:26:02.473Z,99689.38
2023-01-27T14:28:38.071Z,99685.06
2023-01-27T14:31:11.099Z,99681.59
2023-01-27T14:33:50.471Z,99687.66
2023-01-27T14:36:21.424Z,99692.84
2023-01-27T14:38:56.355Z,99698.91
2023-01-27T14:41:28.818Z,99705.84
2023-01-27T14:44:02.701Z,99707.59
2023-01-27T14:46:43.434Z,99700.66
2023-01-27T14:49:17.162Z,99711.06
2023-01-27T14:51:50.197Z,99707.59
2023-01-27T14:54:29.928Z,99705.00
2023-01-27T14:57:18.033Z,99710.19
2023-01-27T14:59:55.078Z,99712.81
2023-01-27T15:02:36.830Z,99696.34
2023-01-27T15:05:08.756Z,99714.56
2023-01-27T15:07:42.535Z,99705.03
2023-01-27T15:10:20.287Z,99718.00
2023-01-27T15:13:29.228Z,99718.84
2023-01-27T15:16:11.008Z,99714.53
2023-01-27T15:18:52.929Z,99719.72
2023-01-27T15:21:32.101Z,99729.28
2023-01-27T15:24:18.170Z,99722.34
2023-01-27T15:26:47.598Z,99702.44
2023-01-27T15:29:16.077Z,99735.38
2023-01-27T15:32:11.892Z,99744.03
2023-01-27T15:34:39.998Z,99737.94
2023-01-27T15:37:14.868Z,99729.28
2023-01-27T15:40:04.336Z,99731.03
2023-01-27T15:42:52.268Z,99738.81
2023-01-27T15:45:30.559Z,99744.03
2023-01-27T15:50:37.522Z,99711.94
2023-01-27T15:53:12.907Z,99746.63
2023-01-27T15:55:49.287Z,99727.56
2023-01-27T15:58:24.309Z,99742.31
2023-01-27T16:00:53.173Z,99710.25
2023-01-27T16:03:25.231Z,99744.03
2023-01-27T16:05:57.197Z,99730.16
2023-01-27T16:08:25.735Z,99751.84
2023-01-27T16:10:53.505Z,99759.66
2023-01-27T16:13:24.271Z,99757.91
2023-01-27T16:16:29.287Z,99761.38
2023-01-27T16:19:04.701Z,99751.00
2023-01-27T16:21:41.366Z,99753.56
2023-01-27T16:24:15.048Z,99761.38
2023-01-27T16:26:45.432Z,99763.13
2023-01-27T16:29:26.687Z,99764.00
2023-01-27T16:32:00.237Z,99764.84
2023-01-27T16:34:35.502Z,99773.53
2023-01-27T16:37:10.198Z,99777.84
2023-01-27T16:39:45.628Z,99774.41
2023-01-27T16:42:15.799Z,99773.53
2023-01-27T16:44:45.781Z,99777.88
2023-01-27T16:47:20.742Z,99777.88
2023-01-27T16:49:51.156Z,99767.50
2023-01-27T16:52:24.702Z,99779.63
2023-01-27T16:54:58.730Z,99782.22
2023-01-27T16:57:33.749Z,99783.94
2023-01-27T17:00:06.741Z,99787.44
2023-01-27T17:02:35.220Z,99798.69
2023-01-27T17:05:06.509Z,99798.69
2023-01-27T17:07:34.689Z,99797.84
2023-01-27T17:10:10.397Z,99792.63
2023-01-27T17:12:43.166Z,99795.22
2023-01-27T17:15:19.072Z,99800.41
2023-01-27T17:17:47.319Z,99798.69
2023-01-27T17:20:24.923Z,99797.81
2023-01-27T17:22:54.341Z,99801.28
2023-01-27T17:25:32.075Z,99793.50
2023-01-27T17:28:01.336Z,99807.34
2023-01-27T17:30:34.335Z,99801.31
2023-01-27T17:33:02.982Z,99794.38
2023-01-27T17:35:33.874Z,99794.34
2023-01-27T17:38:14.820Z,99802.16
2023-01-27T17:40:45.701Z,99792.63
2023-01-27T17:43:27.648Z,99796.09
2023-01-27T17:46:12.153Z,99777.91
2023-01-27T17:48:41.712Z,99801.31
2023-01-27T17:51:12.868Z,99809.09
2023-01-27T17:53:42.387Z,99791.78
2023-01-27T17:56:16.331Z,99797.84
2023-01-27T17:58:46.022Z,99789.19
2023-01-27T18:01:15.117Z,99804.78
2023-01-27T18:03:42.881Z,99803.03
2023-01-27T18:06:14.662Z,99816.91
2023-01-27T18:08:50.324Z,99816.91
2023-01-27T18:11:24.127Z,99819.53
2023-01-27T18:13:53.776Z,99819.53
2023-01-27T18:16:23.536Z,99816.91
2023-01-27T18:18:51.805Z,99818.66
2023-01-27T18:21:23.997Z,99818.63
2023-01-27T18:23:55.456Z,99817.78
2023-01-27T18:26:25.990Z,99792.66
2023-01-27T18:28:56.190Z,99825.59
2023-01-27T18:31:26.616Z,99829.06
2023-01-27T18:34:00.622Z,99834.25
2023-01-27T18:36:35.365Z,99833.41
2023-01-27T18:39:04.235Z,99829.91
2023-01-27T18:41:35.366Z,99836.88
2023-01-27T18:44:03.080Z,99829.94
2023-01-27T18:46:31.328Z,99838.59
2023-01-27T18:49:02.595Z,99836.88
2023-01-27T18:51:32.484Z,99840.31
2023-01-27T18:54:00.116Z,99842.06
2023-01-27T18:56:27.741Z,99839.47
2023-01-27T18:58:55.958Z,99835.13
2023-01-27T19:01:24.977Z,99842.06
2023-01-27T19:03:56.964Z,99836.88
2023-01-27T19:06:26.308Z,99844.69
2023-01-27T19:08:55.248Z,99847.28
2023-01-27T19:11:22.927Z,99840.34
2023-01-27T19:13:50.581Z,99833.41
2023-01-27T19:16:19.151Z,99837.75
2023-01-27T19:18:46.847Z,99836.00
2023-01-27T19:21:16.539Z,99842.94
2023-01-27T19:23:45.843Z,99850.75
2023-01-27T19:26:18.510Z,99849.88
2023-01-27T19:28:47.611Z,99846.41
2023-01-27T19:31:15.662Z,99849.00
2023-01-27T19:33:45.002Z,99845.53
2023-01-27T19:36:22.530Z,99852.47
2023-01-27T19:38:51.181Z,99850.75
2023-01-27T19:41:20.267Z,99845.53
2023-01-27T19:43:49.982Z,99856.81
2023-01-27T19:46:21.743Z,99852.47
2023-01-27T19:48:50.196Z,99863.75
2023-01-27T19:51:18.952Z,99871.56
2023-01-27T19:53:46.660Z,99868.97
2023-01-27T19:56:17.431Z,99870.69
2023-01-27T19:58:49.915Z,99835.13
2023-01-27T20:01:17.895Z,99872.44
2023-01-27T20:03:45.705Z,99852.47
2023-01-27T20:06:17.663Z,99848.16
2023-01-27T20:08:45.651Z,99885.44
2023-01-27T20:11:35.346Z,99886.31
2023-01-27T20:14:05.910Z,99877.63
2023-01-27T20:16:34.311Z,99888.91
2023-01-27T20:19:01.972Z,99889.78
2023-01-27T20:21:31.352Z,99881.09
2023-01-27T20:23:59.464Z,99890.66
2023-01-27T20:26:29.411Z,99884.56
2023-01-27T20:28:57.249Z,99882.84
2023-01-27T20:31:26.697Z,99876.78
2023-01-27T20:33:54.634Z,99892.38
2023-01-27T20:36:24.284Z,99888.91
2023-01-27T20:38:52.961Z,99893.25
2023-01-27T20:41:23.060Z,99886.31
2023-01-27T20:43:55.746Z,99894.13
2023-01-27T20:46:23.486Z,99897.59
2023-01-27T20:48:53.500Z,99898.44
2023-01-27T20:51:21.196Z,99897.59
2023-01-27T20:53:49.337Z,99885.44
2023-01-27T20:56:19.237Z,99866.34
2023-01-27T20:58:47.654Z,99892.38
2023-01-27T21:01:19.549Z,99909.72
2023-01-27T21:03:50.373Z,99912.31
2023-01-27T21:06:20.420Z,99896.72
2023-01-27T21:08:49.544Z,99907.13
2023-01-27T21:11:22.954Z,99917.53
2023-01-27T21:13:52.923Z,99928.78
2023-01-27T21:16:20.674Z,99922.72
2023-01-27T21:18:49.099Z,99921.00
2023-01-27T21:21:27.175Z,99917.53
2023-01-27T21:23:55.176Z,99921.00
2023-01-27T21:26:23.742Z,99915.78
2023-01-27T21:28:54.578Z,99907.13
2023-01-27T21:31:24.263Z,99917.53
2023-01-27T21:33:53.399Z,99915.78
2023-01-27T21:36:21.994Z,99907.97
2023-01-27T21:38:53.748Z,99912.31
2023-01-27T21:41:40.633Z,99912.31
2023-01-27T21:44:34.416Z,99916.66
2023-01-27T21:47:05.259Z,99914.91
2023-01-27T21:49:55.321Z,99927.94
2023-01-27T21:52:23.212Z,99914.91
2023-01-27T21:54:53.320Z,99913.19
2023-01-27T21:57:21.723Z,99919.25
2023-01-27T21:59:49.856Z,99913.19
2023-01-27T22:02:17.972Z,99898.44
2023-01-27T22:04:46.802Z,99901.03
2023-01-27T22:07:16.069Z,99901.91
2023-01-27T22:09:44.029Z,99903.63
2023-01-27T22:12:14.701Z,99905.38
2023-01-27T22:14:42.594Z,99901.03
2023-01-27T22:17:10.361Z,99907.97
2023-01-27T22:19:39.095Z,99909.72
2023-01-27T22:22:07.835Z,99908.84
2023-01-27T22:27:10.223Z,99907.09
2023-01-27T22:29:40.332Z,99907.09
2023-01-27T22:32:07.959Z,99902.75
2023-01-27T22:34:35.562Z,99915.78
2023-01-27T22:37:03.695Z,99896.69
2023-01-27T22:39:31.563Z,99906.25
2023-01-27T22:41:59.187Z,99915.78
2023-01-27T22:44:26.825Z,99903.63
2023-01-27T22:46:55.899Z,99913.16
2023-01-27T22:49:23.558Z,99913.16
2023-01-27T22:51:51.350Z,99914.88
2023-01-27T22:54:19.031Z,99897.53
2023-01-27T22:56:46.949Z,99912.28
2023-01-27T22:59:14.758Z,99909.66
2023-01-27T23:01:42.452Z,99907.09
2023-01-27T23:04:13.346Z,99914.88
2023-01-27T23:06:40.975Z,99901.88
2023-01-27T23:09:08.657Z,99896.69
2023-01-27T23:11:36.372Z,99888.00
2023-01-27T23:14:04.176Z,99892.31
2023-01-27T23:16:32.150Z,99882.78
2023-01-27T23:18:59.916Z,99893.19
2023-01-27T23:21:29.541Z,99901.84
2023-01-27T23:23:57.147Z,99905.31
2023-01-27T23:26:25.031Z,99902.72
2023-01-27T23:28:52.704Z,99914.84
2023-01-27T23:31:20.465Z,99906.19
2023-01-27T23:33:49.200Z,99920.94
2023-01-27T23:36:16.907Z,99915.72
2023-01-27T23:38:48.303Z,99913.13
2023-01-27T23:41:18.312Z,99913.97
2023-01-27T23:43:46.205Z,99911.38
2023-01-27T23:46:14.552Z,99917.47
2023-01-27T23:48:42.216Z,99911.41
2023-01-27T23:51:10.705Z,99913.13
2023-01-27T23:53:38.260Z,99916.59
2023-01-27T23:56:08.331Z,99906.19
2023-01-27T23:58:35.900Z,99895.75
